sensor_id;sensor_type;location;lat;lon;timestamp;temperature;humidity
11538;DHT22;50159;49.426;11.182;2023-02-22T00:01:41;3.30;99.90
11538;DHT22;50159;49.426;11.182;2023-02-22T00:04:36;3.30;99.90
11538;DHT22;50159;49.426;11.182;2023-02-22T00:07:05;3.20;99.90
11538;DHT22;50159;49.426;11.182;2023-02-22T00:09:32;3.20;99.90
11538;DHT22;50159;49.426;11.182;2023-02-22T00:11:59;3.20;99.90
11538;DHT22;50159;49.426;11.182;2023-02-22T00:14:26;3.20;99.90
11538;DHT22;50159;49.426;11.182;2023-02-22T00:16:52;3.10;99.90
11538;DHT22;50159;49.426;11.182;2023-02-22T00:19:25;3.10;99.90
11538;DHT22;50159;49.426;11.182;2023-02-22T00:21:56;3.00;99.90
11538;DHT22;50159;49.426;11.182;2023-02-22T00:24:23;3.00;99.90
11538;DHT22;50159;49.426;11.182;2023-02-22T00:26:54;3.00;99.90
11538;DHT22;50159;49.426;11.182;2023-02-22T00:29:22;2.90;99.90
11538;DHT22;50159;49.426;11.182;2023-02-22T00:31:50;2.90;99.90
11538;DHT22;50159;49.426;11.182;2023-02-22T00:34:17;2.90;99.90
11538;DHT22;50159;49.426;11.182;2023-02-22T00:36:48;2.90;99.90
11538;DHT22;50159;49.426;11.182;2023-02-22T00:39:15;2.80;99.90
11538;DHT22;50159;49.426;11.182;2023-02-22T00:41:43;2.80;99.90
11538;DHT22;50159;49.426;11.182;2023-02-22T00:44:10;2.80;99.90
11538;DHT22;50159;49.426;11.182;2023-02-22T00:46:37;2.80;99.90
11538;DHT22;50159;49.426;11.182;2023-02-22T00:49:04;2.70;99.90
11538;DHT22;50159;49.426;11.182;2023-02-22T00:51:31;2.70;99.90
11538;DHT22;50159;49.426;11.182;2023-02-22T00:53:59;2.70;99.90
11538;DHT22;50159;49.426;11.182;2023-02-22T00:56:26;2.70;99.90
11538;DHT22;50159;49.426;11.182;2023-02-22T00:58:53;2.70;99.90
11538;DHT22;50159;49.426;11.182;2023-02-22T01:01:20;2.60;99.90
11538;DHT22;50159;49.426;11.182;2023-02-22T01:03:47;2.60;99.90
11538;DHT22;50159;49.426;11.182;2023-02-22T01:06:13;2.50;99.90
11538;DHT22;50159;49.426;11.182;2023-02-22T01:08:43;2.50;99.90
11538;DHT22;50159;49.426;11.182;2023-02-22T01:11:11;2.50;99.90
11538;DHT22;50159;49.426;11.182;2023-02-22T01:13:40;2.50;99.90
11538;DHT22;50159;49.426;11.182;2023-02-22T01:16:07;2.40;99.90
11538;DHT22;50159;49.426;11.182;2023-02-22T01:18:35;2.40;99.90
11538;DHT22;50159;49.426;11.182;2023-02-22T01:21:03;2.40;99.90
11538;DHT22;50159;49.426;11.182;2023-02-22T01:23:30;2.30;99.90
11538;DHT22;50159;49.426;11.182;2023-02-22T01:25:57;2.30;99.90
11538;DHT22;50159;49.426;11.182;2023-02-22T01:28:24;2.30;99.90
11538;DHT22;50159;49.426;11.182;2023-02-22T01:30:51;2.30;99.90
11538;DHT22;50159;49.426;11.182;2023-02-22T01:33:18;2.30;99.90
11538;DHT22;50159;49.426;11.182;2023-02-22T01:35:45;2.30;99.90
11538;DHT22;50159;49.426;11.182;2023-02-22T01:38:12;2.30;99.90
11538;DHT22;50159;49.426;11.182;2023-02-22T01:40:42;2.30;99.90
11538;DHT22;50159;49.426;11.182;2023-02-22T01:43:28;2.30;99.90
11538;DHT22;50159;49.426;11.182;2023-02-22T01:51:52;2.20;99.90
11538;DHT22;50159;49.426;11.182;2023-02-22T01:54:31;2.20;99.90
11538;DHT22;50159;49.426;11.182;2023-02-22T01:57:19;2.20;99.90
11538;DHT22;50159;49.426;11.182;2023-02-22T02:00:02;2.20;99.90
11538;DHT22;50159;49.426;11.182;2023-02-22T02:02:41;2.30;99.90
11538;DHT22;50159;49.426;11.182;2023-02-22T02:05:11;2.30;99.90
11538;DHT22;50159;49.426;11.182;2023-02-22T02:07:39;2.20;99.90
11538;DHT22;50159;49.426;11.182;2023-02-22T02:10:09;2.20;99.90
11538;DHT22;50159;49.426;11.182;2023-02-22T02:12:42;2.10;99.90
11538;DHT22;50159;49.426;11.182;2023-02-22T02:15:39;2.10;99.90
11538;DHT22;50159;49.426;11.182;2023-02-22T02:18:08;2.00;99.90
11538;DHT22;50159;49.426;11.182;2023-02-22T02:21:05;1.90;99.90
11538;DHT22;50159;49.426;11.182;2023-02-22T02:26:44;1.80;99.90
11538;DHT22;50159;49.426;11.182;2023-02-22T02:38:40;1.70;99.90
11538;DHT22;50159;49.426;11.182;2023-02-22T02:41:15;1.70;99.90
11538;DHT22;50159;49.426;11.182;2023-02-22T02:43:56;1.60;99.90
11538;DHT22;50159;49.426;11.182;2023-02-22T02:46:45;1.60;99.90
11538;DHT22;50159;49.426;11.182;2023-02-22T02:49:24;1.60;99.90
11538;DHT22;50159;49.426;11.182;2023-02-22T02:51:57;1.60;99.90
11538;DHT22;50159;49.426;11.182;2023-02-22T02:54:26;1.60;99.90
11538;DHT22;50159;49.426;11.182;2023-02-22T02:56:55;1.60;99.90
11538;DHT22;50159;49.426;11.182;2023-02-22T02:59:31;1.60;99.90
11538;DHT22;50159;49.426;11.182;2023-02-22T03:17:03;1.40;99.90
11538;DHT22;50159;49.426;11.182;2023-02-22T03:19:50;1.40;99.90
11538;DHT22;50159;49.426;11.182;2023-02-22T03:22:30;1.40;99.90
11538;DHT22;50159;49.426;11.182;2023-02-22T03:25:42;1.40;99.90
11538;DHT22;50159;49.426;11.182;2023-02-22T03:28:17;1.40;99.90
11538;DHT22;50159;49.426;11.182;2023-02-22T03:30:53;1.40;99.90
11538;DHT22;50159;49.426;11.182;2023-02-22T03:33:43;1.40;99.90
11538;DHT22;50159;49.426;11.182;2023-02-22T03:36:30;1.30;99.90
11538;DHT22;50159;49.426;11.182;2023-02-22T03:39:01;1.30;99.90
11538;DHT22;50159;49.426;11.182;2023-02-22T03:41:30;1.30;99.90
11538;DHT22;50159;49.426;11.182;2023-02-22T03:44:03;1.30;99.90
11538;DHT22;50159;49.426;11.182;2023-02-22T03:46:33;1.30;99.90
11538;DHT22;50159;49.426;11.182;2023-02-22T03:49:13;1.30;99.90
11538;DHT22;50159;49.426;11.182;2023-02-22T03:52:01;1.30;99.90
11538;DHT22;50159;49.426;11.182;2023-02-22T03:54:30;1.30;99.90
11538;DHT22;50159;49.426;11.182;2023-02-22T03:57:09;1.30;99.90
11538;DHT22;50159;49.426;11.182;2023-02-22T03:59:41;1.20;99.90
11538;DHT22;50159;49.426;11.182;2023-02-22T04:02:08;0.80;99.90
11538;DHT22;50159;49.426;11.182;2023-02-22T04:04:35;1.20;99.90
11538;DHT22;50159;49.426;11.182;2023-02-22T04:07:02;1.20;99.90
11538;DHT22;50159;49.426;11.182;2023-02-22T04:09:29;1.10;99.90
11538;DHT22;50159;49.426;11.182;2023-02-22T04:11:55;1.20;99.90
11538;DHT22;50159;49.426;11.182;2023-02-22T04:14:22;1.10;99.90
11538;DHT22;50159;49.426;11.182;2023-02-22T04:16:50;1.10;99.90
11538;DHT22;50159;49.426;11.182;2023-02-22T04:19:16;1.00;99.90
11538;DHT22;50159;49.426;11.182;2023-02-22T04:21:43;1.00;99.90
11538;DHT22;50159;49.426;11.182;2023-02-22T04:24:10;1.00;99.90
11538;DHT22;50159;49.426;11.182;2023-02-22T04:26:37;1.00;99.90
11538;DHT22;50159;49.426;11.182;2023-02-22T04:29:04;1.00;99.90
11538;DHT22;50159;49.426;11.182;2023-02-22T04:31:31;1.00;99.90
11538;DHT22;50159;49.426;11.182;2023-02-22T04:33:59;1.00;99.90
11538;DHT22;50159;49.426;11.182;2023-02-22T04:36:27;1.00;99.90
11538;DHT22;50159;49.426;11.182;2023-02-22T04:38:53;1.00;99.90
11538;DHT22;50159;49.426;11.182;2023-02-22T04:41:20;1.00;99.90
11538;DHT22;50159;49.426;11.182;2023-02-22T04:43:50;0.90;99.90
11538;DHT22;50159;49.426;11.182;2023-02-22T04:46:17;0.90;99.90
11538;DHT22;50159;49.426;11.182;2023-02-22T04:48:45;0.80;99.90
11538;DHT22;50159;49.426;11.182;2023-02-22T04:51:12;0.80;99.90
11538;DHT22;50159;49.426;11.182;2023-02-22T04:53:38;0.80;99.90
11538;DHT22;50159;49.426;11.182;2023-02-22T04:56:05;0.80;99.90
11538;DHT22;50159;49.426;11.182;2023-02-22T04:58:32;0.80;99.90
11538;DHT22;50159;49.426;11.182;2023-02-22T05:00:59;0.80;99.90
11538;DHT22;50159;49.426;11.182;2023-02-22T05:03:26;0.80;99.90
11538;DHT22;50159;49.426;11.182;2023-02-22T05:05:53;0.80;99.90
11538;DHT22;50159;49.426;11.182;2023-02-22T05:08:20;0.80;99.90
11538;DHT22;50159;49.426;11.182;2023-02-22T05:10:46;0.80;99.90
11538;DHT22;50159;49.426;11.182;2023-02-22T05:13:13;0.80;99.90
11538;DHT22;50159;49.426;11.182;2023-02-22T05:15:40;0.70;99.90
11538;DHT22;50159;49.426;11.182;2023-02-22T05:18:07;0.70;99.90
11538;DHT22;50159;49.426;11.182;2023-02-22T05:20:34;0.70;99.90
11538;DHT22;50159;49.426;11.182;2023-02-22T05:23:01;0.80;99.90
11538;DHT22;50159;49.426;11.182;2023-02-22T05:25:29;0.80;99.90
11538;DHT22;50159;49.426;11.182;2023-02-22T05:28:02;0.80;99.90
11538;DHT22;50159;49.426;11.182;2023-02-22T05:30:34;0.80;99.90
11538;DHT22;50159;49.426;11.182;2023-02-22T05:33:02;0.90;99.90
11538;DHT22;50159;49.426;11.182;2023-02-22T05:35:29;0.90;99.90
11538;DHT22;50159;49.426;11.182;2023-02-22T05:37:55;0.90;99.90
11538;DHT22;50159;49.426;11.182;2023-02-22T05:40:24;0.90;99.90
11538;DHT22;50159;49.426;11.182;2023-02-22T05:42:52;0.90;99.90
11538;DHT22;50159;49.426;11.182;2023-02-22T05:45:22;0.90;99.90
11538;DHT22;50159;49.426;11.182;2023-02-22T05:47:51;0.90;99.90
11538;DHT22;50159;49.426;11.182;2023-02-22T05:50:19;0.90;99.90
11538;DHT22;50159;49.426;11.182;2023-02-22T05:52:47;0.80;99.90
11538;DHT22;50159;49.426;11.182;2023-02-22T05:55:17;0.80;99.90
11538;DHT22;50159;49.426;11.182;2023-02-22T05:57:45;0.80;99.90
11538;DHT22;50159;49.426;11.182;2023-02-22T06:00:19;0.70;99.90
11538;DHT22;50159;49.426;11.182;2023-02-22T06:05:23;0.70;99.90
11538;DHT22;50159;49.426;11.182;2023-02-22T06:07:50;0.70;99.90
11538;DHT22;50159;49.426;11.182;2023-02-22T06:10:17;0.70;99.90
11538;DHT22;50159;49.426;11.182;2023-02-22T06:12:46;0.80;99.90
11538;DHT22;50159;49.426;11.182;2023-02-22T06:15:18;0.80;99.90
11538;DHT22;50159;49.426;11.182;2023-02-22T06:17:47;0.80;99.90
11538;DHT22;50159;49.426;11.182;2023-02-22T06:20:16;0.80;99.90
11538;DHT22;50159;49.426;11.182;2023-02-22T06:22:50;0.80;99.90
11538;DHT22;50159;49.426;11.182;2023-02-22T06:25:21;0.80;99.90
11538;DHT22;50159;49.426;11.182;2023-02-22T06:27:50;0.80;99.90
11538;DHT22;50159;49.426;11.182;2023-02-22T06:30:19;0.80;99.90
11538;DHT22;50159;49.426;11.182;2023-02-22T06:32:50;0.80;99.90
11538;DHT22;50159;49.426;11.182;2023-02-22T06:35:17;0.90;99.90
11538;DHT22;50159;49.426;11.182;2023-02-22T06:37:44;0.90;99.90
11538;DHT22;50159;49.426;11.182;2023-02-22T06:40:11;0.90;99.90
11538;DHT22;50159;49.426;11.182;2023-02-22T06:42:39;1.00;99.90
11538;DHT22;50159;49.426;11.182;2023-02-22T06:45:07;1.00;99.90
11538;DHT22;50159;49.426;11.182;2023-02-22T06:47:38;1.00;99.90
11538;DHT22;50159;49.426;11.182;2023-02-22T06:50:09;1.10;99.90
11538;DHT22;50159;49.426;11.182;2023-02-22T06:52:44;1.10;99.90
11538;DHT22;50159;49.426;11.182;2023-02-22T06:55:17;1.10;99.90
11538;DHT22;50159;49.426;11.182;2023-02-22T06:57:44;1.20;99.90
11538;DHT22;50159;49.426;11.182;2023-02-22T07:00:13;1.30;99.90
11538;DHT22;50159;49.426;11.182;2023-02-22T07:02:41;1.30;99.90
11538;DHT22;50159;49.426;11.182;2023-02-22T07:05:10;1.40;99.90
11538;DHT22;50159;49.426;11.182;2023-02-22T07:07:38;1.50;99.90
11538;DHT22;50159;49.426;11.182;2023-02-22T07:10:07;1.60;99.90
11538;DHT22;50159;49.426;11.182;2023-02-22T07:12:41;1.60;99.90
11538;DHT22;50159;49.426;11.182;2023-02-22T07:15:08;1.70;99.90
11538;DHT22;50159;49.426;11.182;2023-02-22T07:17:35;1.80;99.90
11538;DHT22;50159;49.426;11.182;2023-02-22T07:20:02;1.90;99.90
11538;DHT22;50159;49.426;11.182;2023-02-22T07:22:29;1.90;99.90
11538;DHT22;50159;49.426;11.182;2023-02-22T07:24:56;2.00;99.90
11538;DHT22;50159;49.426;11.182;2023-02-22T07:27:22;2.10;99.90
11538;DHT22;50159;49.426;11.182;2023-02-22T07:29:49;2.20;99.90
11538;DHT22;50159;49.426;11.182;2023-02-22T07:32:16;2.20;99.90
11538;DHT22;50159;49.426;11.182;2023-02-22T07:34:43;2.30;99.90
11538;DHT22;50159;49.426;11.182;2023-02-22T07:37:09;2.40;99.90
11538;DHT22;50159;49.426;11.182;2023-02-22T07:39:36;2.50;99.90
11538;DHT22;50159;49.426;11.182;2023-02-22T07:42:03;2.60;99.90
11538;DHT22;50159;49.426;11.182;2023-02-22T07:44:30;2.70;99.90
11538;DHT22;50159;49.426;11.182;2023-02-22T07:46:57;2.90;99.90
11538;DHT22;50159;49.426;11.182;2023-02-22T07:49:24;3.10;99.90
11538;DHT22;50159;49.426;11.182;2023-02-22T07:51:50;3.20;99.90
11538;DHT22;50159;49.426;11.182;2023-02-22T07:54:17;3.40;99.90
11538;DHT22;50159;49.426;11.182;2023-02-22T07:56:46;3.60;99.90
11538;DHT22;50159;49.426;11.182;2023-02-22T07:59:14;3.80;99.90
11538;DHT22;50159;49.426;11.182;2023-02-22T08:01:41;4.00;99.90
11538;DHT22;50159;49.426;11.182;2023-02-22T08:04:08;4.10;99.90
11538;DHT22;50159;49.426;11.182;2023-02-22T08:06:35;4.30;99.90
11538;DHT22;50159;49.426;11.182;2023-02-22T08:09:02;4.40;99.90
11538;DHT22;50159;49.426;11.182;2023-02-22T08:11:28;4.50;99.90
11538;DHT22;50159;49.426;11.182;2023-02-22T08:13:55;4.70;99.90
11538;DHT22;50159;49.426;11.182;2023-02-22T08:16:22;4.90;99.90
11538;DHT22;50159;49.426;11.182;2023-02-22T08:18:48;5.00;99.90
11538;DHT22;50159;49.426;11.182;2023-02-22T08:21:16;5.20;99.90
11538;DHT22;50159;49.426;11.182;2023-02-22T08:23:43;5.30;99.90
11538;DHT22;50159;49.426;11.182;2023-02-22T08:26:10;5.50;99.90
11538;DHT22;50159;49.426;11.182;2023-02-22T08:28:41;5.60;99.90
11538;DHT22;50159;49.426;11.182;2023-02-22T08:31:08;5.80;99.90
11538;DHT22;50159;49.426;11.182;2023-02-22T08:33:38;6.00;99.90
11538;DHT22;50159;49.426;11.182;2023-02-22T08:36:04;6.20;99.90
11538;DHT22;50159;49.426;11.182;2023-02-22T08:38:31;6.40;99.90
11538;DHT22;50159;49.426;11.182;2023-02-22T08:40:59;6.60;99.90
11538;DHT22;50159;49.426;11.182;2023-02-22T08:43:26;6.80;99.90
11538;DHT22;50159;49.426;11.182;2023-02-22T08:45:54;7.00;99.90
11538;DHT22;50159;49.426;11.182;2023-02-22T08:48:23;7.20;99.90
11538;DHT22;50159;49.426;11.182;2023-02-22T08:50:50;7.30;99.90
11538;DHT22;50159;49.426;11.182;2023-02-22T08:53:17;7.50;99.90
11538;DHT22;50159;49.426;11.182;2023-02-22T08:55:44;7.70;99.90
11538;DHT22;50159;49.426;11.182;2023-02-22T08:58:11;7.80;99.90
11538;DHT22;50159;49.426;11.182;2023-02-22T09:00:40;8.00;99.90
11538;DHT22;50159;49.426;11.182;2023-02-22T09:03:09;8.10;99.90
11538;DHT22;50159;49.426;11.182;2023-02-22T09:05:40;8.30;99.90
11538;DHT22;50159;49.426;11.182;2023-02-22T09:08:08;8.50;99.90
11538;DHT22;50159;49.426;11.182;2023-02-22T09:10:35;8.70;99.90
11538;DHT22;50159;49.426;11.182;2023-02-22T09:13:03;8.90;99.90
11538;DHT22;50159;49.426;11.182;2023-02-22T09:15:31;9.00;99.90
11538;DHT22;50159;49.426;11.182;2023-02-22T09:17:58;9.10;99.90
11538;DHT22;50159;49.426;11.182;2023-02-22T09:20:26;9.30;99.90
11538;DHT22;50159;49.426;11.182;2023-02-22T09:22:54;9.50;99.90
11538;DHT22;50159;49.426;11.182;2023-02-22T09:25:21;9.60;99.90
11538;DHT22;50159;49.426;11.182;2023-02-22T09:27:50;9.80;99.90
11538;DHT22;50159;49.426;11.182;2023-02-22T09:32:52;10.60;99.90
11538;DHT22;50159;49.426;11.182;2023-02-22T09:35:21;10.90;99.90
11538;DHT22;50159;49.426;11.182;2023-02-22T09:37:56;11.00;99.90
11538;DHT22;50159;49.426;11.182;2023-02-22T09:40:29;11.20;99.90
11538;DHT22;50159;49.426;11.182;2023-02-22T09:51:38;11.70;99.90
11538;DHT22;50159;49.426;11.182;2023-02-22T09:54:25;11.70;99.90
11538;DHT22;50159;49.426;11.182;2023-02-22T09:57:03;11.70;99.90
11538;DHT22;50159;49.426;11.182;2023-02-22T09:59:52;11.60;99.90
11538;DHT22;50159;49.426;11.182;2023-02-22T10:02:33;11.50;99.90
11538;DHT22;50159;49.426;11.182;2023-02-22T10:05:26;11.60;99.90
11538;DHT22;50159;49.426;11.182;2023-02-22T10:08:01;11.70;99.90
11538;DHT22;50159;49.426;11.182;2023-02-22T10:10:36;11.80;99.90
11538;DHT22;50159;49.426;11.182;2023-02-22T10:16:35;12.30;99.90
11538;DHT22;50159;49.426;11.182;2023-02-22T10:19:31;12.50;99.90
11538;DHT22;50159;49.426;11.182;2023-02-22T10:22:10;12.80;99.90
11538;DHT22;50159;49.426;11.182;2023-02-22T10:27:37;13.10;99.90
11538;DHT22;50159;49.426;11.182;2023-02-22T10:33:04;13.00;99.90
11538;DHT22;50159;49.426;11.182;2023-02-22T10:35:40;13.30;99.90
11538;DHT22;50159;49.426;11.182;2023-02-22T10:38:32;13.60;99.90
11538;DHT22;50159;49.426;11.182;2023-02-22T10:41:17;13.80;99.90
11538;DHT22;50159;49.426;11.182;2023-02-22T10:44:05;13.90;98.80
11538;DHT22;50159;49.426;11.182;2023-02-22T10:46:32;13.90;97.80
11538;DHT22;50159;49.426;11.182;2023-02-22T10:49:03;14.00;97.50
11538;DHT22;50159;49.426;11.182;2023-02-22T10:51:33;14.20;97.30
11538;DHT22;50159;49.426;11.182;2023-02-22T10:56:50;14.70;96.40
11538;DHT22;50159;49.426;11.182;2023-02-22T10:59:35;15.20;93.90
11538;DHT22;50159;49.426;11.182;2023-02-22T11:02:22;15.40;92.10
11538;DHT22;50159;49.426;11.182;2023-02-22T11:04:56;15.70;92.10
11538;DHT22;50159;49.426;11.182;2023-02-22T11:07:35;15.90;89.40
11538;DHT22;50159;49.426;11.182;2023-02-22T11:10:05;16.10;87.70
11538;DHT22;50159;49.426;11.182;2023-02-22T11:12:38;16.20;84.90
11538;DHT22;50159;49.426;11.182;2023-02-22T11:17:46;16.60;82.20
11538;DHT22;50159;49.426;11.182;2023-02-22T11:20:22;16.70;79.80
11538;DHT22;50159;49.426;11.182;2023-02-22T11:22:56;16.80;77.70
11538;DHT22;50159;49.426;11.182;2023-02-22T11:25:35;16.80;77.50
11538;DHT22;50159;49.426;11.182;2023-02-22T11:28:28;16.80;76.00
11538;DHT22;50159;49.426;11.182;2023-02-22T11:31:16;16.90;76.20
11538;DHT22;50159;49.426;11.182;2023-02-22T11:33:55;17.00;76.10
11538;DHT22;50159;49.426;11.182;2023-02-22T11:36:31;17.00;73.10
11538;DHT22;50159;49.426;11.182;2023-02-22T11:39:04;17.00;72.70
11538;DHT22;50159;49.426;11.182;2023-02-22T11:41:45;17.10;74.30
11538;DHT22;50159;49.426;11.182;2023-02-22T11:44:28;17.10;72.90
11538;DHT22;50159;49.426;11.182;2023-02-22T11:46:59;17.10;74.30
11538;DHT22;50159;49.426;11.182;2023-02-22T11:49:43;17.10;72.60
11538;DHT22;50159;49.426;11.182;2023-02-22T11:55:08;17.10;73.30
11538;DHT22;50159;49.426;11.182;2023-02-22T12:01:15;17.10;71.90
11538;DHT22;50159;49.426;11.182;2023-02-22T12:07:10;17.20;72.50
11538;DHT22;50159;49.426;11.182;2023-02-22T12:12:42;17.80;72.40
11538;DHT22;50159;49.426;11.182;2023-02-22T12:15:28;18.10;68.50
11538;DHT22;50159;49.426;11.182;2023-02-22T12:18:56;18.40;67.10
11538;DHT22;50159;49.426;11.182;2023-02-22T12:21:28;18.60;65.20
11538;DHT22;50159;49.426;11.182;2023-02-22T12:26:42;19.00;64.00
11538;DHT22;50159;49.426;11.182;2023-02-22T12:29:26;19.00;63.10
11538;DHT22;50159;49.426;11.182;2023-02-22T12:32:00;19.00;63.60
11538;DHT22;50159;49.426;11.182;2023-02-22T12:34:49;19.10;63.20
11538;DHT22;50159;49.426;11.182;2023-02-22T12:37:25;19.40;62.70
11538;DHT22;50159;49.426;11.182;2023-02-22T12:40:15;19.90;61.10
11538;DHT22;50159;49.426;11.182;2023-02-22T12:43:12;19.90;58.10
11538;DHT22;50159;49.426;11.182;2023-02-22T12:46:12;19.80;57.80
11538;DHT22;50159;49.426;11.182;2023-02-22T12:48:53;19.60;58.30
11538;DHT22;50159;49.426;11.182;2023-02-22T12:57:26;19.70;59.60
11538;DHT22;50159;49.426;11.182;2023-02-22T13:00:26;20.00;57.40
11538;DHT22;50159;49.426;11.182;2023-02-22T13:03:21;20.10;57.10
11538;DHT22;50159;49.426;11.182;2023-02-22T13:06:05;20.40;56.90
11538;DHT22;50159;49.426;11.182;2023-02-22T13:12:21;20.60;55.30
11538;DHT22;50159;49.426;11.182;2023-02-22T13:20:40;20.50;55.40
11538;DHT22;50159;49.426;11.182;2023-02-22T13:23:36;20.50;54.80
11538;DHT22;50159;49.426;11.182;2023-02-22T13:29:21;20.80;53.90
11538;DHT22;50159;49.426;11.182;2023-02-22T13:43:20;21.10;52.20
11538;DHT22;50159;49.426;11.182;2023-02-22T13:51:13;21.40;51.50
11538;DHT22;50159;49.426;11.182;2023-02-22T13:57:00;21.50;50.20
11538;DHT22;50159;49.426;11.182;2023-02-22T13:59:35;21.30;49.40
11538;DHT22;50159;49.426;11.182;2023-02-22T14:02:05;21.00;50.70
11538;DHT22;50159;49.426;11.182;2023-02-22T14:04:38;21.10;50.50
11538;DHT22;50159;49.426;11.182;2023-02-22T14:09:50;22.00;49.90
11538;DHT22;50159;49.426;11.182;2023-02-22T14:18:05;26.00;43.50
11538;DHT22;50159;49.426;11.182;2023-02-22T14:20:39;28.20;38.70
11538;DHT22;50159;49.426;11.182;2023-02-22T14:23:26;29.70;35.00
11538;DHT22;50159;49.426;11.182;2023-02-22T14:29:01;30.80;31.10
11538;DHT22;50159;49.426;11.182;2023-02-22T14:34:19;28.50;33.40
11538;DHT22;50159;49.426;11.182;2023-02-22T14:36:55;27.20;35.90
11538;DHT22;50159;49.426;11.182;2023-02-22T14:39:31;25.90;37.80
11538;DHT22;50159;49.426;11.182;2023-02-22T14:44:40;23.80;41.70
11538;DHT22;50159;49.426;11.182;2023-02-22T14:47:39;23.10;43.40
11538;DHT22;50159;49.426;11.182;2023-02-22T14:50:46;22.10;45.20
11538;DHT22;50159;49.426;11.182;2023-02-22T14:53:24;20.70;47.60
11538;DHT22;50159;49.426;11.182;2023-02-22T14:56:04;19.80;49.00
11538;DHT22;50159;49.426;11.182;2023-02-22T15:01:30;18.60;52.20
11538;DHT22;50159;49.426;11.182;2023-02-22T15:04:24;18.10;53.60
11538;DHT22;50159;49.426;11.182;2023-02-22T15:07:00;17.70;54.60
11538;DHT22;50159;49.426;11.182;2023-02-22T15:09:35;17.40;55.50
11538;DHT22;50159;49.426;11.182;2023-02-22T15:14:33;17.00;57.00
11538;DHT22;50159;49.426;11.182;2023-02-22T15:17:08;16.80;57.70
11538;DHT22;50159;49.426;11.182;2023-02-22T15:19:42;16.70;58.20
11538;DHT22;50159;49.426;11.182;2023-02-22T15:22:26;16.60;58.90
11538;DHT22;50159;49.426;11.182;2023-02-22T15:25:04;16.40;59.10
11538;DHT22;50159;49.426;11.182;2023-02-22T15:27:34;16.30;59.80
11538;DHT22;50159;49.426;11.182;2023-02-22T15:30:24;16.20;59.90
11538;DHT22;50159;49.426;11.182;2023-02-22T15:32:53;16.10;60.90
11538;DHT22;50159;49.426;11.182;2023-02-22T15:35:31;16.00;61.20
11538;DHT22;50159;49.426;11.182;2023-02-22T15:38:15;15.90;61.20
11538;DHT22;50159;49.426;11.182;2023-02-22T15:40:46;15.80;61.50
11538;DHT22;50159;49.426;11.182;2023-02-22T15:43:25;15.70;62.00
11538;DHT22;50159;49.426;11.182;2023-02-22T15:45:56;15.70;62.90
11538;DHT22;50159;49.426;11.182;2023-02-22T15:48:25;15.60;64.00
11538;DHT22;50159;49.426;11.182;2023-02-22T15:51:07;15.60;64.50
11538;DHT22;50159;49.426;11.182;2023-02-22T15:53:48;15.50;64.40
11538;DHT22;50159;49.426;11.182;2023-02-22T15:56:18;15.50;65.10
11538;DHT22;50159;49.426;11.182;2023-02-22T15:58:58;15.40;65.50
11538;DHT22;50159;49.426;11.182;2023-02-22T16:01:36;15.30;66.40
11538;DHT22;50159;49.426;11.182;2023-02-22T16:04:18;15.30;67.30
11538;DHT22;50159;49.426;11.182;2023-02-22T16:06:49;15.20;68.40
11538;DHT22;50159;49.426;11.182;2023-02-22T16:09:23;15.10;69.20
11538;DHT22;50159;49.426;11.182;2023-02-22T16:20:27;14.60;73.70
11538;DHT22;50159;49.426;11.182;2023-02-22T16:22:48;14.50;74.60
11538;DHT22;50159;49.426;11.182;2023-02-22T16:28:24;14.20;77.10
11538;DHT22;50159;49.426;11.182;2023-02-22T16:30:57;14.10;79.00
11538;DHT22;50159;49.426;11.182;2023-02-22T16:33:24;13.90;80.70
11538;DHT22;50159;49.426;11.182;2023-02-22T16:35:55;13.80;82.50
11538;DHT22;50159;49.426;11.182;2023-02-22T16:38:23;13.70;84.40
11538;DHT22;50159;49.426;11.182;2023-02-22T16:40:56;13.50;86.40
11538;DHT22;50159;49.426;11.182;2023-02-22T16:43:27;13.40;88.90
11538;DHT22;50159;49.426;11.182;2023-02-22T16:45:59;13.30;90.60
11538;DHT22;50159;49.426;11.182;2023-02-22T16:48:31;13.20;91.70
11538;DHT22;50159;49.426;11.182;2023-02-22T16:51:07;13.10;92.60
11538;DHT22;50159;49.426;11.182;2023-02-22T16:53:40;13.00;93.60
11538;DHT22;50159;49.426;11.182;2023-02-22T16:56:09;13.00;94.70
11538;DHT22;50159;49.426;11.182;2023-02-22T16:58:42;12.80;95.60
11538;DHT22;50159;49.426;11.182;2023-02-22T17:01:10;12.80;96.70
11538;DHT22;50159;49.426;11.182;2023-02-22T17:03:38;12.70;97.90
11538;DHT22;50159;49.426;11.182;2023-02-22T17:06:05;12.60;98.50
11538;DHT22;50159;49.426;11.182;2023-02-22T17:08:32;12.50;99.00
11538;DHT22;50159;49.426;11.182;2023-02-22T17:10:59;12.40;99.60
11538;DHT22;50159;49.426;11.182;2023-02-22T17:13:27;12.30;99.90
11538;DHT22;50159;49.426;11.182;2023-02-22T17:15:55;12.30;99.90
11538;DHT22;50159;49.426;11.182;2023-02-22T17:18:24;12.20;99.90
11538;DHT22;50159;49.426;11.182;2023-02-22T17:20:54;12.20;99.90
11538;DHT22;50159;49.426;11.182;2023-02-22T17:23:22;12.10;99.90
11538;DHT22;50159;49.426;11.182;2023-02-22T17:25:52;12.10;99.90
11538;DHT22;50159;49.426;11.182;2023-02-22T17:28:22;12.00;99.90
11538;DHT22;50159;49.426;11.182;2023-02-22T17:30:54;12.00;99.90
11538;DHT22;50159;49.426;11.182;2023-02-22T17:33:29;11.90;99.90
11538;DHT22;50159;49.426;11.182;2023-02-22T17:35:59;11.80;99.90
11538;DHT22;50159;49.426;11.182;2023-02-22T17:38:28;11.80;99.90
11538;DHT22;50159;49.426;11.182;2023-02-22T17:40:57;11.80;99.90
11538;DHT22;50159;49.426;11.182;2023-02-22T17:43:25;11.80;99.90
11538;DHT22;50159;49.426;11.182;2023-02-22T17:45:56;11.70;99.90
11538;DHT22;50159;49.426;11.182;2023-02-22T17:48:23;11.60;99.90
11538;DHT22;50159;49.426;11.182;2023-02-22T17:50:51;11.60;99.90
11538;DHT22;50159;49.426;11.182;2023-02-22T17:53:19;11.50;99.90
11538;DHT22;50159;49.426;11.182;2023-02-22T17:55:48;11.50;99.90
11538;DHT22;50159;49.426;11.182;2023-02-22T17:58:16;11.50;99.90
11538;DHT22;50159;49.426;11.182;2023-02-22T18:00:46;11.50;99.90
11538;DHT22;50159;49.426;11.182;2023-02-22T18:03:16;11.50;99.90
11538;DHT22;50159;49.426;11.182;2023-02-22T18:05:58;11.50;99.90
11538;DHT22;50159;49.426;11.182;2023-02-22T18:08:27;11.40;99.90
11538;DHT22;50159;49.426;11.182;2023-02-22T18:10:56;11.30;99.90
11538;DHT22;50159;49.426;11.182;2023-02-22T18:13:25;11.30;99.90
11538;DHT22;50159;49.426;11.182;2023-02-22T18:15:56;11.20;99.90
11538;DHT22;50159;49.426;11.182;2023-02-22T18:18:25;11.20;99.90
11538;DHT22;50159;49.426;11.182;2023-02-22T18:20:52;11.10;99.90
11538;DHT22;50159;49.426;11.182;2023-02-22T18:23:26;11.00;99.90
11538;DHT22;50159;49.426;11.182;2023-02-22T18:25:55;11.00;99.90
11538;DHT22;50159;49.426;11.182;2023-02-22T18:28:36;10.90;99.90